sensor_id;sensor_type;location;lat;lon;timestamp;P1;durP1;ratioP1;P2;durP2;ratioP2
61015;SDS011;46902;52.920;6.536;2023-01-29T00:01:27;19.05;;;12.85;;
61015;SDS011;46902;52.920;6.536;2023-01-29T00:03:52;25.00;;;13.88;;
61015;SDS011;46902;52.920;6.536;2023-01-29T00:06:18;21.80;;;13.27;;
61015;SDS011;46902;52.920;6.536;2023-01-29T00:08:44;18.58;;;13.30;;
61015;SDS011;46902;52.920;6.536;2023-01-29T00:11:10;17.83;;;12.68;;
61015;SDS011;46902;52.920;6.536;2023-01-29T00:13:36;19.83;;;12.93;;
61015;SDS011;46902;52.920;6.536;2023-01-29T00:16:02;18.15;;;13.10;;
61015;SDS011;46902;52.920;6.536;2023-01-29T00:18:28;17.15;;;12.82;;
61015;SDS011;46902;52.920;6.536;2023-01-29T00:20:54;19.48;;;14.48;;
61015;SDS011;46902;52.920;6.536;2023-01-29T00:23:20;19.20;;;13.52;;
61015;SDS011;46902;52.920;6.536;2023-01-29T00:25:46;19.67;;;13.60;;
61015;SDS011;46902;52.920;6.536;2023-01-29T00:28:11;19.55;;;14.00;;
61015;SDS011;46902;52.920;6.536;2023-01-29T00:30:37;17.33;;;12.57;;
61015;SDS011;46902;52.920;6.536;2023-01-29T00:33:03;18.13;;;12.98;;
61015;SDS011;46902;52.920;6.536;2023-01-29T00:35:30;20.17;;;14.13;;
61015;SDS011;46902;52.920;6.536;2023-01-29T00:37:56;20.98;;;13.35;;
61015;SDS011;46902;52.920;6.536;2023-01-29T00:40:23;20.30;;;13.57;;
61015;SDS011;46902;52.920;6.536;2023-01-29T00:42:49;17.98;;;13.25;;
61015;SDS011;46902;52.920;6.536;2023-01-29T00:45:34;20.35;;;14.68;;
61015;SDS011;46902;52.920;6.536;2023-01-29T00:48:03;20.90;;;15.00;;
61015;SDS011;46902;52.920;6.536;2023-01-29T00:50:30;18.92;;;14.30;;
61015;SDS011;46902;52.920;6.536;2023-01-29T00:52:55;17.98;;;13.85;;
61015;SDS011;46902;52.920;6.536;2023-01-29T00:55:21;23.75;;;14.93;;
61015;SDS011;46902;52.920;6.536;2023-01-29T00:57:47;22.42;;;13.90;;
61015;SDS011;46902;52.920;6.536;2023-01-29T01:00:14;18.92;;;14.38;;
61015;SDS011;46902;52.920;6.536;2023-01-29T01:02:41;17.92;;;14.27;;
61015;SDS011;46902;52.920;6.536;2023-01-29T01:05:25;20.50;;;14.40;;
61015;SDS011;46902;52.920;6.536;2023-01-29T01:07:52;22.50;;;14.35;;
61015;SDS011;46902;52.920;6.536;2023-01-29T01:10:22;17.35;;;13.93;;
61015;SDS011;46902;52.920;6.536;2023-01-29T01:15:24;22.42;;;14.55;;
61015;SDS011;46902;52.920;6.536;2023-01-29T01:17:52;23.08;;;15.27;;
61015;SDS011;46902;52.920;6.536;2023-01-29T01:20:19;22.77;;;15.73;;
61015;SDS011;46902;52.920;6.536;2023-01-29T01:22:45;20.52;;;14.93;;
61015;SDS011;46902;52.920;6.536;2023-01-29T01:25:10;22.13;;;15.80;;
61015;SDS011;46902;52.920;6.536;2023-01-29T01:27:36;22.25;;;15.18;;
61015;SDS011;46902;52.920;6.536;2023-01-29T01:30:06;19.33;;;14.55;;
61015;SDS011;46902;52.920;6.536;2023-01-29T01:32:36;22.73;;;15.70;;
61015;SDS011;46902;52.920;6.536;2023-01-29T01:35:02;22.52;;;14.98;;
61015;SDS011;46902;52.920;6.536;2023-01-29T01:37:28;20.95;;;15.00;;
61015;SDS011;46902;52.920;6.536;2023-01-29T01:39:53;24.38;;;15.82;;
61015;SDS011;46902;52.920;6.536;2023-01-29T01:42:22;24.17;;;15.63;;
61015;SDS011;46902;52.920;6.536;2023-01-29T01:45:01;21.67;;;15.50;;
61015;SDS011;46902;52.920;6.536;2023-01-29T01:47:37;19.50;;;14.90;;
61015;SDS011;46902;52.920;6.536;2023-01-29T01:52:44;24.67;;;15.50;;
61015;SDS011;46902;52.920;6.536;2023-01-29T01:55:13;18.92;;;14.98;;
61015;SDS011;46902;52.920;6.536;2023-01-29T01:57:41;22.50;;;14.77;;
61015;SDS011;46902;52.920;6.536;2023-01-29T02:00:11;20.75;;;15.40;;
61015;SDS011;46902;52.920;6.536;2023-01-29T02:02:41;23.85;;;15.82;;
61015;SDS011;46902;52.920;6.536;2023-01-29T02:05:28;21.70;;;15.38;;
61015;SDS011;46902;52.920;6.536;2023-01-29T02:08:16;25.02;;;15.57;;
61015;SDS011;46902;52.920;6.536;2023-01-29T02:11:14;23.88;;;14.85;;
61015;SDS011;46902;52.920;6.536;2023-01-29T02:13:41;22.50;;;15.05;;
61015;SDS011;46902;52.920;6.536;2023-01-29T02:16:07;23.90;;;15.65;;
61015;SDS011;46902;52.920;6.536;2023-01-29T02:18:33;20.55;;;14.82;;
61015;SDS011;46902;52.920;6.536;2023-01-29T02:24:15;19.88;;;15.07;;
61015;SDS011;46902;52.920;6.536;2023-01-29T02:32:29;20.65;;;14.52;;
61015;SDS011;46902;52.920;6.536;2023-01-29T02:35:05;19.80;;;14.00;;
61015;SDS011;46902;52.920;6.536;2023-01-29T02:40:35;18.58;;;14.98;;
61015;SDS011;46902;52.920;6.536;2023-01-29T02:43:21;19.95;;;14.48;;
61015;SDS011;46902;52.920;6.536;2023-01-29T02:46:11;22.42;;;15.23;;
61015;SDS011;46902;52.920;6.536;2023-01-29T02:51:46;18.75;;;14.23;;
61015;SDS011;46902;52.920;6.536;2023-01-29T02:57:04;20.65;;;14.68;;
61015;SDS011;46902;52.920;6.536;2023-01-29T02:59:58;22.35;;;15.23;;
61015;SDS011;46902;52.920;6.536;2023-01-29T03:02:41;21.25;;;14.73;;
61015;SDS011;46902;52.920;6.536;2023-01-29T03:05:26;20.05;;;14.85;;
61015;SDS011;46902;52.920;6.536;2023-01-29T03:08:03;23.92;;;15.07;;
61015;SDS011;46902;52.920;6.536;2023-01-29T03:10:34;20.63;;;13.93;;
61015;SDS011;46902;52.920;6.536;2023-01-29T03:13:06;19.70;;;14.75;;
61015;SDS011;46902;52.920;6.536;2023-01-29T03:15:40;22.83;;;16.15;;
61015;SDS011;46902;52.920;6.536;2023-01-29T03:18:12;20.55;;;15.43;;
61015;SDS011;46902;52.920;6.536;2023-01-29T03:20:46;19.67;;;15.02;;
61015;SDS011;46902;52.920;6.536;2023-01-29T03:23:16;19.55;;;14.20;;
61015;SDS011;46902;52.920;6.536;2023-01-29T03:25:48;20.25;;;15.27;;
61015;SDS011;46902;52.920;6.536;2023-01-29T03:28:35;20.83;;;15.40;;
61015;SDS011;46902;52.920;6.536;2023-01-29T03:31:22;21.25;;;16.20;;
61015;SDS011;46902;52.920;6.536;2023-01-29T03:34:10;19.95;;;14.27;;
61015;SDS011;46902;52.920;6.536;2023-01-29T03:39:19;19.35;;;14.73;;
61015;SDS011;46902;52.920;6.536;2023-01-29T03:47:16;19.63;;;13.93;;
61015;SDS011;46902;52.920;6.536;2023-01-29T03:52:40;20.92;;;14.65;;
61015;SDS011;46902;52.920;6.536;2023-01-29T03:55:19;21.38;;;14.63;;
61015;SDS011;46902;52.920;6.536;2023-01-29T03:57:56;20.05;;;15.00;;
61015;SDS011;46902;52.920;6.536;2023-01-29T04:00:29;19.60;;;15.20;;
61015;SDS011;46902;52.920;6.536;2023-01-29T04:05:43;19.80;;;15.25;;
61015;SDS011;46902;52.920;6.536;2023-01-29T04:08:22;22.45;;;15.63;;
61015;SDS011;46902;52.920;6.536;2023-01-29T04:10:51;19.80;;;14.93;;
61015;SDS011;46902;52.920;6.536;2023-01-29T04:13:21;22.08;;;14.90;;
61015;SDS011;46902;52.920;6.536;2023-01-29T04:15:55;19.65;;;16.02;;
61015;SDS011;46902;52.920;6.536;2023-01-29T04:18:23;19.80;;;15.70;;
61015;SDS011;46902;52.920;6.536;2023-01-29T04:20:49;19.92;;;15.75;;
61015;SDS011;46902;52.920;6.536;2023-01-29T04:23:19;22.65;;;15.77;;
61015;SDS011;46902;52.920;6.536;2023-01-29T04:25:56;20.45;;;15.90;;
61015;SDS011;46902;52.920;6.536;2023-01-29T04:28:51;22.55;;;16.20;;
61015;SDS011;46902;52.920;6.536;2023-01-29T04:31:29;21.88;;;16.83;;
61015;SDS011;46902;52.920;6.536;2023-01-29T04:34:18;21.48;;;16.38;;
61015;SDS011;46902;52.920;6.536;2023-01-29T04:37:48;21.85;;;16.35;;
61015;SDS011;46902;52.920;6.536;2023-01-29T04:40:42;23.10;;;17.17;;
61015;SDS011;46902;52.920;6.536;2023-01-29T04:43:03;23.65;;;17.98;;
61015;SDS011;46902;52.920;6.536;2023-01-29T04:48:45;21.05;;;17.58;;
61015;SDS011;46902;52.920;6.536;2023-01-29T04:56:57;22.40;;;17.75;;
61015;SDS011;46902;52.920;6.536;2023-01-29T04:59:35;26.15;;;18.45;;
61015;SDS011;46902;52.920;6.536;2023-01-29T05:02:06;23.67;;;17.55;;
61015;SDS011;46902;52.920;6.536;2023-01-29T05:04:35;23.30;;;17.83;;
61015;SDS011;46902;52.920;6.536;2023-01-29T05:07:04;23.60;;;17.98;;
61015;SDS011;46902;52.920;6.536;2023-01-29T05:09:32;21.98;;;18.20;;
61015;SDS011;46902;52.920;6.536;2023-01-29T05:12:00;22.50;;;17.88;;
61015;SDS011;46902;52.920;6.536;2023-01-29T05:14:27;24.02;;;17.70;;
61015;SDS011;46902;52.920;6.536;2023-01-29T05:16:57;24.83;;;17.65;;
61015;SDS011;46902;52.920;6.536;2023-01-29T05:19:29;22.67;;;17.98;;
61015;SDS011;46902;52.920;6.536;2023-01-29T05:21:54;25.40;;;18.30;;
61015;SDS011;46902;52.920;6.536;2023-01-29T05:24:22;22.88;;;18.67;;
61015;SDS011;46902;52.920;6.536;2023-01-29T05:26:51;22.25;;;18.90;;
61015;SDS011;46902;52.920;6.536;2023-01-29T05:29:37;22.70;;;18.48;;
61015;SDS011;46902;52.920;6.536;2023-01-29T05:32:06;23.83;;;18.67;;
61015;SDS011;46902;52.920;6.536;2023-01-29T05:34:32;24.60;;;19.17;;
61015;SDS011;46902;52.920;6.536;2023-01-29T05:36:58;23.63;;;18.83;;
61015;SDS011;46902;52.920;6.536;2023-01-29T05:39:24;23.50;;;18.10;;
61015;SDS011;46902;52.920;6.536;2023-01-29T05:41:49;24.15;;;18.95;;
61015;SDS011;46902;52.920;6.536;2023-01-29T05:44:15;23.25;;;19.25;;
61015;SDS011;46902;52.920;6.536;2023-01-29T05:46:40;22.65;;;18.55;;
61015;SDS011;46902;52.920;6.536;2023-01-29T05:49:06;22.90;;;19.73;;
61015;SDS011;46902;52.920;6.536;2023-01-29T05:51:32;22.98;;;19.55;;
61015;SDS011;46902;52.920;6.536;2023-01-29T05:53:57;25.27;;;19.13;;
61015;SDS011;46902;52.920;6.536;2023-01-29T05:56:23;24.02;;;20.58;;
61015;SDS011;46902;52.920;6.536;2023-01-29T05:58:49;24.73;;;19.90;;
61015;SDS011;46902;52.920;6.536;2023-01-29T06:01:19;24.75;;;19.40;;
61015;SDS011;46902;52.920;6.536;2023-01-29T06:03:46;23.63;;;19.38;;
61015;SDS011;46902;52.920;6.536;2023-01-29T06:06:12;23.10;;;18.83;;
61015;SDS011;46902;52.920;6.536;2023-01-29T06:08:39;24.20;;;20.02;;
61015;SDS011;46902;52.920;6.536;2023-01-29T06:11:08;24.13;;;19.58;;
61015;SDS011;46902;52.920;6.536;2023-01-29T06:13:36;26.17;;;20.25;;
61015;SDS011;46902;52.920;6.536;2023-01-29T06:16:05;23.15;;;20.25;;
61015;SDS011;46902;52.920;6.536;2023-01-29T06:18:31;26.95;;;20.58;;
61015;SDS011;46902;52.920;6.536;2023-01-29T06:21:04;24.77;;;20.23;;
61015;SDS011;46902;52.920;6.536;2023-01-29T06:23:32;24.65;;;20.42;;
61015;SDS011;46902;52.920;6.536;2023-01-29T06:25:58;24.25;;;19.65;;
61015;SDS011;46902;52.920;6.536;2023-01-29T06:28:25;25.95;;;21.00;;
61015;SDS011;46902;52.920;6.536;2023-01-29T06:30:50;27.20;;;20.92;;
61015;SDS011;46902;52.920;6.536;2023-01-29T06:33:16;27.30;;;21.15;;
61015;SDS011;46902;52.920;6.536;2023-01-29T06:35:41;27.42;;;20.40;;
61015;SDS011;46902;52.920;6.536;2023-01-29T06:38:07;27.40;;;20.95;;
61015;SDS011;46902;52.920;6.536;2023-01-29T06:40:32;26.35;;;20.60;;
61015;SDS011;46902;52.920;6.536;2023-01-29T06:43:01;26.25;;;21.20;;
61015;SDS011;46902;52.920;6.536;2023-01-29T06:45:27;26.60;;;21.45;;
61015;SDS011;46902;52.920;6.536;2023-01-29T06:47:52;27.42;;;21.83;;
61015;SDS011;46902;52.920;6.536;2023-01-29T06:50:18;27.95;;;21.15;;
61015;SDS011;46902;52.920;6.536;2023-01-29T06:52:43;25.83;;;21.27;;
61015;SDS011;46902;52.920;6.536;2023-01-29T06:55:09;26.48;;;21.13;;
61015;SDS011;46902;52.920;6.536;2023-01-29T06:57:35;26.35;;;21.95;;
61015;SDS011;46902;52.920;6.536;2023-01-29T07:00:00;28.67;;;21.70;;
61015;SDS011;46902;52.920;6.536;2023-01-29T07:02:26;25.55;;;20.73;;
61015;SDS011;46902;52.920;6.536;2023-01-29T07:04:52;27.30;;;21.85;;
61015;SDS011;46902;52.920;6.536;2023-01-29T07:07:17;27.10;;;21.30;;
61015;SDS011;46902;52.920;6.536;2023-01-29T07:09:43;27.05;;;21.23;;
61015;SDS011;46902;52.920;6.536;2023-01-29T07:12:09;27.10;;;21.35;;
61015;SDS011;46902;52.920;6.536;2023-01-29T07:14:35;26.48;;;21.55;;
61015;SDS011;46902;52.920;6.536;2023-01-29T07:17:01;27.83;;;21.75;;
61015;SDS011;46902;52.920;6.536;2023-01-29T07:19:26;27.00;;;21.73;;
61015;SDS011;46902;52.920;6.536;2023-01-29T07:21:52;27.85;;;22.38;;
61015;SDS011;46902;52.920;6.536;2023-01-29T07:24:18;28.40;;;22.55;;
61015;SDS011;46902;52.920;6.536;2023-01-29T07:26:43;29.25;;;22.98;;
61015;SDS011;46902;52.920;6.536;2023-01-29T07:29:09;30.95;;;22.40;;
61015;SDS011;46902;52.920;6.536;2023-01-29T07:31:35;31.00;;;23.10;;
61015;SDS011;46902;52.920;6.536;2023-01-29T07:34:00;32.17;;;23.08;;
61015;SDS011;46902;52.920;6.536;2023-01-29T07:36:26;28.95;;;23.27;;
61015;SDS011;46902;52.920;6.536;2023-01-29T07:38:52;28.98;;;23.50;;
61015;SDS011;46902;52.920;6.536;2023-01-29T07:41:18;28.85;;;22.85;;
61015;SDS011;46902;52.920;6.536;2023-01-29T07:43:44;29.70;;;23.13;;
61015;SDS011;46902;52.920;6.536;2023-01-29T07:46:09;31.25;;;23.05;;
61015;SDS011;46902;52.920;6.536;2023-01-29T07:48:35;31.90;;;23.50;;
61015;SDS011;46902;52.920;6.536;2023-01-29T07:51:00;32.20;;;23.63;;
61015;SDS011;46902;52.920;6.536;2023-01-29T07:53:26;29.20;;;23.40;;
61015;SDS011;46902;52.920;6.536;2023-01-29T07:55:52;31.23;;;24.10;;
61015;SDS011;46902;52.920;6.536;2023-01-29T07:58:18;32.67;;;24.95;;
61015;SDS011;46902;52.920;6.536;2023-01-29T08:00:44;31.23;;;24.38;;
61015;SDS011;46902;52.920;6.536;2023-01-29T08:03:10;29.88;;;23.65;;
61015;SDS011;46902;52.920;6.536;2023-01-29T08:05:38;32.28;;;24.42;;
61015;SDS011;46902;52.920;6.536;2023-01-29T08:08:04;31.95;;;23.90;;
61015;SDS011;46902;52.920;6.536;2023-01-29T08:10:29;34.10;;;24.42;;
61015;SDS011;46902;52.920;6.536;2023-01-29T08:12:56;32.28;;;24.60;;
61015;SDS011;46902;52.920;6.536;2023-01-29T08:15:22;32.35;;;25.67;;
61015;SDS011;46902;52.920;6.536;2023-01-29T08:17:48;33.65;;;24.67;;
61015;SDS011;46902;52.920;6.536;2023-01-29T08:20:14;34.25;;;25.83;;
61015;SDS011;46902;52.920;6.536;2023-01-29T08:22:40;33.45;;;25.00;;
61015;SDS011;46902;52.920;6.536;2023-01-29T08:25:06;32.20;;;25.45;;
61015;SDS011;46902;52.920;6.536;2023-01-29T08:27:31;34.13;;;26.20;;
61015;SDS011;46902;52.920;6.536;2023-01-29T08:29:57;32.25;;;25.92;;
61015;SDS011;46902;52.920;6.536;2023-01-29T08:32:23;34.75;;;26.27;;
61015;SDS011;46902;52.920;6.536;2023-01-29T08:34:49;35.08;;;26.48;;
61015;SDS011;46902;52.920;6.536;2023-01-29T08:37:14;33.85;;;24.70;;
61015;SDS011;46902;52.920;6.536;2023-01-29T08:39:40;33.65;;;26.17;;
61015;SDS011;46902;52.920;6.536;2023-01-29T08:42:06;36.95;;;25.33;;
61015;SDS011;46902;52.920;6.536;2023-01-29T08:44:31;33.65;;;25.00;;
61015;SDS011;46902;52.920;6.536;2023-01-29T08:46:57;37.20;;;26.00;;
61015;SDS011;46902;52.920;6.536;2023-01-29T08:49:22;34.60;;;25.95;;
61015;SDS011;46902;52.920;6.536;2023-01-29T08:51:48;35.70;;;26.30;;
61015;SDS011;46902;52.920;6.536;2023-01-29T08:54:15;32.75;;;24.60;;
61015;SDS011;46902;52.920;6.536;2023-01-29T08:56:41;36.35;;;26.23;;
61015;SDS011;46902;52.920;6.536;2023-01-29T08:59:11;35.70;;;25.35;;
61015;SDS011;46902;52.920;6.536;2023-01-29T09:01:37;34.20;;;26.83;;
61015;SDS011;46902;52.920;6.536;2023-01-29T09:04:02;33.65;;;25.88;;
61015;SDS011;46902;52.920;6.536;2023-01-29T09:06:28;35.88;;;26.65;;
61015;SDS011;46902;52.920;6.536;2023-01-29T09:08:53;36.38;;;26.75;;
61015;SDS011;46902;52.920;6.536;2023-01-29T09:11:19;37.80;;;26.30;;
61015;SDS011;46902;52.920;6.536;2023-01-29T09:13:44;34.88;;;25.35;;
61015;SDS011;46902;52.920;6.536;2023-01-29T09:16:10;33.83;;;26.05;;
61015;SDS011;46902;52.920;6.536;2023-01-29T09:18:36;37.05;;;26.05;;
61015;SDS011;46902;52.920;6.536;2023-01-29T09:21:01;35.33;;;26.20;;
61015;SDS011;46902;52.920;6.536;2023-01-29T09:23:28;37.80;;;26.63;;
61015;SDS011;46902;52.920;6.536;2023-01-29T09:25:54;34.25;;;26.52;;
61015;SDS011;46902;52.920;6.536;2023-01-29T09:28:21;35.83;;;26.13;;
61015;SDS011;46902;52.920;6.536;2023-01-29T09:30:46;36.60;;;27.30;;
61015;SDS011;46902;52.920;6.536;2023-01-29T09:33:12;37.28;;;26.65;;
61015;SDS011;46902;52.920;6.536;2023-01-29T09:35:41;38.08;;;26.90;;
61015;SDS011;46902;52.920;6.536;2023-01-29T09:38:08;36.50;;;26.35;;
61015;SDS011;46902;52.920;6.536;2023-01-29T09:46:22;38.47;;;26.88;;
61015;SDS011;46902;52.920;6.536;2023-01-29T09:51:41;34.47;;;26.40;;
61015;SDS011;46902;52.920;6.536;2023-01-29T09:54:13;36.50;;;28.00;;
61015;SDS011;46902;52.920;6.536;2023-01-29T09:56:54;34.22;;;26.40;;
61015;SDS011;46902;52.920;6.536;2023-01-29T09:59:21;37.35;;;27.70;;
61015;SDS011;46902;52.920;6.536;2023-01-29T10:01:52;37.63;;;26.50;;
61015;SDS011;46902;52.920;6.536;2023-01-29T10:18:28;34.08;;;26.23;;
61015;SDS011;46902;52.920;6.536;2023-01-29T10:23:49;38.00;;;26.25;;
61015;SDS011;46902;52.920;6.536;2023-01-29T10:26:19;33.50;;;24.90;;
61015;SDS011;46902;52.920;6.536;2023-01-29T10:28:49;36.25;;;27.38;;
61015;SDS011;46902;52.920;6.536;2023-01-29T10:31:18;34.72;;;26.63;;
61015;SDS011;46902;52.920;6.536;2023-01-29T10:34:37;32.03;;;26.00;;
61015;SDS011;46902;52.920;6.536;2023-01-29T10:36:49;35.53;;;26.38;;
61015;SDS011;46902;52.920;6.536;2023-01-29T10:39:16;36.65;;;27.48;;
61015;SDS011;46902;52.920;6.536;2023-01-29T10:44:52;36.70;;;26.88;;
61015;SDS011;46902;52.920;6.536;2023-01-29T10:50:22;37.97;;;27.67;;
61015;SDS011;46902;52.920;6.536;2023-01-29T11:00:39;34.70;;;26.33;;
61015;SDS011;46902;52.920;6.536;2023-01-29T11:05:44;36.92;;;26.88;;
61015;SDS011;46902;52.920;6.536;2023-01-29T11:08:22;35.20;;;26.55;;
61015;SDS011;46902;52.920;6.536;2023-01-29T11:13:59;34.67;;;26.70;;
61015;SDS011;46902;52.920;6.536;2023-01-29T11:16:31;37.85;;;28.33;;
61015;SDS011;46902;52.920;6.536;2023-01-29T11:19:05;41.97;;;28.15;;
61015;SDS011;46902;52.920;6.536;2023-01-29T11:21:31;37.03;;;27.92;;
61015;SDS011;46902;52.920;6.536;2023-01-29T11:26:36;36.83;;;28.00;;
61015;SDS011;46902;52.920;6.536;2023-01-29T11:29:04;37.72;;;28.13;;
61015;SDS011;46902;52.920;6.536;2023-01-29T11:31:50;38.55;;;27.20;;
61015;SDS011;46902;52.920;6.536;2023-01-29T11:34:17;40.40;;;27.52;;
61015;SDS011;46902;52.920;6.536;2023-01-29T11:36:45;38.33;;;27.98;;
61015;SDS011;46902;52.920;6.536;2023-01-29T11:39:21;37.53;;;26.85;;
61015;SDS011;46902;52.920;6.536;2023-01-29T11:42:00;34.97;;;26.17;;
61015;SDS011;46902;52.920;6.536;2023-01-29T11:49:48;39.20;;;27.73;;
61015;SDS011;46902;52.920;6.536;2023-01-29T11:52:15;37.10;;;28.52;;
61015;SDS011;46902;52.920;6.536;2023-01-29T11:54:52;38.63;;;27.60;;
61015;SDS011;46902;52.920;6.536;2023-01-29T11:57:25;35.88;;;27.05;;
61015;SDS011;46902;52.920;6.536;2023-01-29T12:00:04;37.10;;;26.35;;
61015;SDS011;46902;52.920;6.536;2023-01-29T12:02:42;34.92;;;27.20;;
61015;SDS011;46902;52.920;6.536;2023-01-29T12:05:13;37.80;;;26.58;;
61015;SDS011;46902;52.920;6.536;2023-01-29T12:07:45;36.95;;;26.35;;
61015;SDS011;46902;52.920;6.536;2023-01-29T12:15:40;32.38;;;26.08;;
61015;SDS011;46902;52.920;6.536;2023-01-29T12:18:15;32.70;;;23.83;;
61015;SDS011;46902;52.920;6.536;2023-01-29T12:21:04;31.92;;;24.88;;
61015;SDS011;46902;52.920;6.536;2023-01-29T12:23:40;36.78;;;25.73;;
61015;SDS011;46902;52.920;6.536;2023-01-29T12:26:35;33.00;;;23.63;;
61015;SDS011;46902;52.920;6.536;2023-01-29T12:29:32;34.85;;;24.30;;
61015;SDS011;46902;52.920;6.536;2023-01-29T12:35:09;31.45;;;24.23;;
61015;SDS011;46902;52.920;6.536;2023-01-29T12:40:26;29.38;;;23.33;;
61015;SDS011;46902;52.920;6.536;2023-01-29T12:42:56;31.70;;;24.20;;
61015;SDS011;46902;52.920;6.536;2023-01-29T12:45:27;35.85;;;24.83;;
61015;SDS011;46902;52.920;6.536;2023-01-29T12:47:55;35.10;;;25.90;;
61015;SDS011;46902;52.920;6.536;2023-01-29T12:52:54;38.42;;;25.92;;
61015;SDS011;46902;52.920;6.536;2023-01-29T12:55:28;33.72;;;25.65;;
61015;SDS011;46902;52.920;6.536;2023-01-29T12:58:07;34.08;;;26.02;;
61015;SDS011;46902;52.920;6.536;2023-01-29T13:00:41;35.53;;;26.45;;
61015;SDS011;46902;52.920;6.536;2023-01-29T13:06:01;36.35;;;26.92;;
61015;SDS011;46902;52.920;6.536;2023-01-29T13:08:49;38.08;;;27.65;;
61015;SDS011;46902;52.920;6.536;2023-01-29T13:11:19;38.55;;;28.42;;
61015;SDS011;46902;52.920;6.536;2023-01-29T13:13:48;43.50;;;31.13;;
61015;SDS011;46902;52.920;6.536;2023-01-29T13:16:19;39.15;;;28.70;;
61015;SDS011;46902;52.920;6.536;2023-01-29T13:18:53;41.25;;;29.23;;
61015;SDS011;46902;52.920;6.536;2023-01-29T13:21:29;41.53;;;30.30;;
61015;SDS011;46902;52.920;6.536;2023-01-29T13:24:02;40.70;;;29.30;;
61015;SDS011;46902;52.920;6.536;2023-01-29T13:26:33;40.25;;;28.42;;
61015;SDS011;46902;52.920;6.536;2023-01-29T13:28:59;39.05;;;29.20;;
61015;SDS011;46902;52.920;6.536;2023-01-29T13:31:36;42.45;;;30.85;;
61015;SDS011;46902;52.920;6.536;2023-01-29T13:34:18;44.03;;;30.55;;
61015;SDS011;46902;52.920;6.536;2023-01-29T13:36:57;45.22;;;31.50;;
61015;SDS011;46902;52.920;6.536;2023-01-29T13:39:32;44.50;;;31.65;;
61015;SDS011;46902;52.920;6.536;2023-01-29T13:42:22;42.38;;;30.45;;
61015;SDS011;46902;52.920;6.536;2023-01-29T13:44:55;39.00;;;28.95;;
61015;SDS011;46902;52.920;6.536;2023-01-29T13:47:25;38.92;;;29.40;;
61015;SDS011;46902;52.920;6.536;2023-01-29T13:55:29;40.20;;;28.92;;
61015;SDS011;46902;52.920;6.536;2023-01-29T13:58:00;42.93;;;28.80;;
61015;SDS011;46902;52.920;6.536;2023-01-29T14:07:54;41.05;;;29.23;;
61015;SDS011;46902;52.920;6.536;2023-01-29T14:10:21;41.88;;;30.30;;
61015;SDS011;46902;52.920;6.536;2023-01-29T14:12:51;40.85;;;29.17;;
61015;SDS011;46902;52.920;6.536;2023-01-29T14:15:19;40.83;;;30.75;;
61015;SDS011;46902;52.920;6.536;2023-01-29T14:17:55;39.60;;;30.50;;
61015;SDS011;46902;52.920;6.536;2023-01-29T14:20:32;44.90;;;31.55;;
61015;SDS011;46902;52.920;6.536;2023-01-29T14:23:02;41.45;;;30.90;;
61015;SDS011;46902;52.920;6.536;2023-01-29T14:25:30;45.67;;;31.85;;
61015;SDS011;46902;52.920;6.536;2023-01-29T14:27:58;44.78;;;32.03;;
61015;SDS011;46902;52.920;6.536;2023-01-29T14:30:26;46.15;;;33.25;;
61015;SDS011;46902;52.920;6.536;2023-01-29T14:32:56;48.85;;;33.10;;
61015;SDS011;46902;52.920;6.536;2023-01-29T14:35:23;44.03;;;31.30;;
61015;SDS011;46902;52.920;6.536;2023-01-29T14:37:54;43.97;;;31.60;;
61015;SDS011;46902;52.920;6.536;2023-01-29T14:40:25;49.13;;;34.10;;
61015;SDS011;46902;52.920;6.536;2023-01-29T14:45:29;52.10;;;33.88;;
61015;SDS011;46902;52.920;6.536;2023-01-29T14:48:04;48.58;;;33.47;;
61015;SDS011;46902;52.920;6.536;2023-01-29T14:56:08;49.17;;;35.03;;
61015;SDS011;46902;52.920;6.536;2023-01-29T14:58:48;53.45;;;35.10;;
61015;SDS011;46902;52.920;6.536;2023-01-29T15:01:31;50.85;;;35.45;;
61015;SDS011;46902;52.920;6.536;2023-01-29T15:06:37;53.90;;;36.05;;
61015;SDS011;46902;52.920;6.536;2023-01-29T15:12:07;55.05;;;37.92;;
61015;SDS011;46902;52.920;6.536;2023-01-29T15:15:04;53.97;;;36.75;;
61015;SDS011;46902;52.920;6.536;2023-01-29T15:20:23;56.80;;;36.70;;
61015;SDS011;46902;52.920;6.536;2023-01-29T15:22:51;52.30;;;36.78;;
61015;SDS011;46902;52.920;6.536;2023-01-29T15:25:17;53.58;;;36.38;;
61015;SDS011;46902;52.920;6.536;2023-01-29T15:27:45;54.55;;;36.67;;
61015;SDS011;46902;52.920;6.536;2023-01-29T15:30:22;54.40;;;37.88;;
61015;SDS011;46902;52.920;6.536;2023-01-29T15:32:53;52.53;;;36.55;;
61015;SDS011;46902;52.920;6.536;2023-01-29T15:35:25;52.00;;;36.25;;
61015;SDS011;46902;52.920;6.536;2023-01-29T15:37:59;54.72;;;36.97;;
61015;SDS011;46902;52.920;6.536;2023-01-29T15:40:30;48.95;;;36.13;;
61015;SDS011;46902;52.920;6.536;2023-01-29T15:42:56;49.50;;;35.47;;
61015;SDS011;46902;52.920;6.536;2023-01-29T15:45:23;52.47;;;37.70;;
61015;SDS011;46902;52.920;6.536;2023-01-29T15:47:53;53.05;;;38.05;;
61015;SDS011;46902;52.920;6.536;2023-01-29T15:50:23;52.15;;;37.33;;
61015;SDS011;46902;52.920;6.536;2023-01-29T15:52:50;54.50;;;37.53;;
61015;SDS011;46902;52.920;6.536;2023-01-29T15:55:18;52.53;;;37.70;;
61015;SDS011;46902;52.920;6.536;2023-01-29T15:57:47;55.28;;;36.55;;
61015;SDS011;46902;52.920;6.536;2023-01-29T16:02:47;57.00;;;38.45;;
61015;SDS011;46902;52.920;6.536;2023-01-29T16:05:17;52.80;;;37.85;;
61015;SDS011;46902;52.920;6.536;2023-01-29T16:07:46;53.40;;;36.97;;
61015;SDS011;46902;52.920;6.536;2023-01-29T16:10:13;49.95;;;36.08;;
61015;SDS011;46902;52.920;6.536;2023-01-29T16:12:43;52.97;;;36.33;;
61015;SDS011;46902;52.920;6.536;2023-01-29T16:15:37;54.33;;;36.30;;
61015;SDS011;46902;52.920;6.536;2023-01-29T16:18:03;54.08;;;37.63;;
61015;SDS011;46902;52.920;6.536;2023-01-29T16:21:00;48.50;;;35.28;;
61015;SDS011;46902;52.920;6.536;2023-01-29T16:23:33;54.85;;;37.22;;
61015;SDS011;46902;52.920;6.536;2023-01-29T16:26:02;55.67;;;37.28;;
61015;SDS011;46902;52.920;6.536;2023-01-29T16:28:32;48.72;;;34.80;;
61015;SDS011;46902;52.920;6.536;2023-01-29T16:31:03;49.70;;;35.53;;
61015;SDS011;46902;52.920;6.536;2023-01-29T16:33:32;48.83;;;34.95;;
61015;SDS011;46902;52.920;6.536;2023-01-29T16:36:12;50.17;;;35.08;;
61015;SDS011;46902;52.920;6.536;2023-01-29T16:38:54;51.58;;;35.55;;
61015;SDS011;46902;52.920;6.536;2023-01-29T16:43:52;50.60;;;35.40;;
61015;SDS011;46902;52.920;6.536;2023-01-29T16:46:25;51.50;;;36.25;;
61015;SDS011;46902;52.920;6.536;2023-01-29T16:48:55;50.38;;;35.60;;
61015;SDS011;46902;52.920;6.536;2023-01-29T16:51:23;48.70;;;35.75;;
61015;SDS011;46902;52.920;6.536;2023-01-29T16:53:57;49.60;;;35.83;;
61015;SDS011;46902;52.920;6.536;2023-01-29T16:56:25;47.22;;;34.10;;
61015;SDS011;46902;52.920;6.536;2023-01-29T16:58:53;48.72;;;35.03;;
61015;SDS011;46902;52.920;6.536;2023-01-29T17:01:20;47.40;;;35.10;;
61015;SDS011;46902;52.920;6.536;2023-01-29T17:03:56;47.55;;;34.65;;
61015;SDS011;46902;52.920;6.536;2023-01-29T17:06:35;48.22;;;34.47;;
61015;SDS011;46902;52.920;6.536;2023-01-29T17:09:02;54.83;;;36.08;;
61015;SDS011;46902;52.920;6.536;2023-01-29T17:11:36;50.13;;;35.75;;